createdAt,value
2022-11-16T00:00:05.440Z,97156.59
2022-11-16T00:02:54.633Z,97155.73
2022-11-16T00:05:27.953Z,97162.13
2022-11-16T00:07:57.827Z,97165.42
2022-11-16T00:10:25.774Z,97161.79
2022-11-16T00:12:53.664Z,97155.89
2022-11-16T00:15:21.650Z,97161.26
2022-11-16T00:17:49.602Z,97169.36
2022-11-16T00:20:17.604Z,97170.58
2022-11-16T00:22:45.712Z,97171.95
2022-11-16T00:25:13.831Z,97171.27
2022-11-16T00:27:41.771Z,97171.43
2022-11-16T00:30:10.892Z,97172.14
2022-11-16T00:32:38.986Z,97180.61
2022-11-16T00:35:07.701Z,97174.37
2022-11-16T00:37:35.991Z,97172.98
2022-11-16T00:40:04.576Z,97165.21
2022-11-16T00:42:32.600Z,97157.58
2022-11-16T00:45:00.599Z,97157.92
2022-11-16T00:47:28.509Z,97157.94
2022-11-16T00:49:56.987Z,97147.92
2022-11-16T00:52:24.975Z,97147.94
2022-11-16T00:54:54.150Z,97145.17
2022-11-16T00:57:22.126Z,97146.22
2022-11-16T00:59:51.002Z,97146.40
2022-11-16T01:02:19.028Z,97144.33
2022-11-16T01:04:47.082Z,97140.02
2022-11-16T01:07:15.510Z,97135.52
2022-11-16T01:09:43.639Z,97126.90
2022-11-16T01:12:12.828Z,97121.18
2022-11-16T01:14:43.714Z,97122.22
2022-11-16T01:17:14.473Z,97115.48
2022-11-16T01:19:42.811Z,97112.55
2022-11-16T01:22:10.977Z,97108.40
2022-11-16T01:24:39.034Z,97097.86
2022-11-16T01:27:07.011Z,97093.89
2022-11-16T01:29:37.307Z,97089.06
2022-11-16T01:32:05.510Z,97084.39
2022-11-16T01:34:34.355Z,97079.39
2022-11-16T01:37:08.171Z,97074.55
2022-11-16T01:39:39.951Z,97065.92
2022-11-16T01:42:18.285Z,97070.42
2022-11-16T01:44:46.879Z,97075.95
2022-11-16T01:47:18.358Z,97079.92
2022-11-16T01:49:52.061Z,97083.37
2022-11-16T01:52:26.776Z,97084.58
2022-11-16T01:54:55.717Z,97077.16
2022-11-16T01:57:39.996Z,97073.35
2022-11-16T02:00:11.908Z,97065.75
2022-11-16T02:02:43.077Z,97064.87
2022-11-16T02:05:22.221Z,97063.83
2022-11-16T02:08:39.082Z,97057.08
2022-11-16T02:11:42.799Z,97057.77
2022-11-16T02:14:28.442Z,97060.88
2022-11-16T02:17:19.822Z,97053.97
2022-11-16T02:20:10.656Z,97055.53
2022-11-16T02:23:06.569Z,97049.85
2022-11-16T02:25:46.905Z,97037.77
2022-11-16T02:28:35.558Z,97036.40
2022-11-16T02:31:08.327Z,97030.38
2022-11-16T02:33:41.224Z,97026.77
2022-11-16T02:36:13.311Z,97029.69
2022-11-16T02:38:52.498Z,97020.19
2022-11-16T02:41:23.576Z,97008.61
2022-11-16T02:44:00.924Z,97005.15
2022-11-16T02:46:36.228Z,97005.50
2022-11-16T02:49:12.059Z,96999.98
2022-11-16T02:51:42.565Z,96998.42
2022-11-16T02:54:15.046Z,97002.04
2022-11-16T02:57:35.191Z,96999.44
2022-11-16T03:00:05.912Z,97000.64
2022-11-16T03:02:49.092Z,96998.40
2022-11-16T03:05:41.614Z,97000.98
2022-11-16T03:08:12.836Z,96998.88
2022-11-16T03:11:03.217Z,97003.00
2022-11-16T03:13:35.890Z,97004.17
2022-11-16T03:16:11.747Z,97001.05
2022-11-16T03:18:41.809Z,96999.31
2022-11-16T03:21:23.990Z,96991.70
2022-11-16T03:23:52.192Z,96979.10
2022-11-16T03:26:26.913Z,96974.80
2022-11-16T03:29:04.898Z,96968.97
2022-11-16T03:31:45.227Z,96970.05
2022-11-16T03:34:20.604Z,96973.35
2022-11-16T03:36:51.251Z,96963.86
2022-11-16T03:39:26.311Z,96954.58
2022-11-16T03:41:56.417Z,96947.52
2022-11-16T03:44:24.890Z,96948.19
2022-11-16T03:46:52.882Z,96942.64
2022-11-16T03:49:22.949Z,96939.52
2022-11-16T03:51:52.675Z,96942.95
2022-11-16T03:54:20.782Z,96945.02
2022-11-16T03:56:49.080Z,96944.29
2022-11-16T03:59:16.956Z,96948.07
2022-11-16T04:01:46.359Z,96949.60
2022-11-16T04:04:34.837Z,96946.64
2022-11-16T04:07:23.118Z,96938.00
2022-11-16T04:10:09.891Z,96930.41
2022-11-16T04:13:03.226Z,96929.92
2022-11-16T04:15:49.810Z,96931.15
2022-11-16T04:18:36.656Z,96922.86
2022-11-16T04:21:24.634Z,96917.16
2022-11-16T04:24:11.198Z,96913.89
2022-11-16T04:27:00.323Z,96900.06
2022-11-16T04:29:29.442Z,96895.23
2022-11-16T04:32:16.058Z,96893.52
2022-11-16T04:35:03.415Z,96893.20
2022-11-16T04:37:49.359Z,96888.36
2022-11-16T04:40:24.266Z,96890.06
2022-11-16T04:42:57.822Z,96894.86
2022-11-16T04:45:46.752Z,96889.13
2022-11-16T04:48:18.751Z,96887.94
2022-11-16T04:50:48.004Z,96888.45
2022-11-16T04:53:17.085Z,96890.33
2022-11-16T04:55:50.588Z,96891.70
2022-11-16T04:58:19.244Z,96888.42
2022-11-16T05:00:47.993Z,96889.50
2022-11-16T05:03:16.075Z,96890.36
2022-11-16T05:05:45.273Z,96888.64
2022-11-16T05:08:13.925Z,96885.88
2022-11-16T05:10:41.996Z,96877.42
2022-11-16T05:13:10.694Z,96881.90
2022-11-16T05:15:39.255Z,96882.24
2022-11-16T05:18:07.354Z,96882.77
2022-11-16T05:20:53.772Z,96884.33
2022-11-16T05:23:40.427Z,96880.52
2022-11-16T05:26:11.495Z,96880.52
2022-11-16T05:28:39.548Z,96885.52
2022-11-16T05:31:08.445Z,96885.70
2022-11-16T05:33:37.207Z,96885.17
2022-11-16T05:36:05.630Z,96879.95
2022-11-16T05:38:34.098Z,96875.11
2022-11-16T05:41:02.493Z,96877.00
2022-11-16T05:43:32.237Z,96883.55
2022-11-16T05:46:08.084Z,96885.27
2022-11-16T05:48:36.873Z,96879.73
2022-11-16T05:51:06.365Z,96872.98
2022-11-16T05:53:35.475Z,96869.52
2022-11-16T05:56:04.428Z,96874.02
2022-11-16T05:58:34.580Z,96866.77
2022-11-16T06:01:04.025Z,96862.46
2022-11-16T06:03:35.885Z,96860.57
2022-11-16T06:06:05.546Z,96861.43
2022-11-16T06:08:34.330Z,96860.24
2022-11-16T06:11:06.811Z,96850.60
2022-11-16T06:13:37.105Z,96851.12
2022-11-16T06:16:06.034Z,96853.02
2022-11-16T06:18:39.568Z,96849.73
2022-11-16T06:21:08.586Z,96841.09
2022-11-16T06:23:36.812Z,96841.79
2022-11-16T06:26:06.136Z,96845.60
2022-11-16T06:28:34.825Z,96851.29
2022-11-16T06:31:03.338Z,96846.77
2022-11-16T06:33:34.066Z,96843.46
2022-11-16T06:36:04.653Z,96839.67
2022-11-16T06:38:34.513Z,96832.58
2022-11-16T06:41:03.536Z,96833.61
2022-11-16T06:43:32.718Z,96839.13
2022-11-16T06:46:01.495Z,96840.14
2022-11-16T06:48:31.119Z,96833.57
2022-11-16T06:50:59.942Z,96829.76
2022-11-16T06:53:29.582Z,96831.66
2022-11-16T06:56:04.688Z,96842.18
2022-11-16T06:58:35.005Z,96850.61
2022-11-16T07:01:12.167Z,96845.45
2022-11-16T07:03:43.222Z,96833.16
2022-11-16T07:06:14.769Z,96835.08
2022-11-16T07:08:46.494Z,96845.16
2022-11-16T07:11:17.320Z,96838.27
2022-11-16T07:13:45.505Z,96838.58
2022-11-16T07:16:14.794Z,96836.81
2022-11-16T07:18:47.835Z,96835.20
2022-11-16T07:21:17.402Z,96834.83
2022-11-16T07:23:45.864Z,96835.83
2022-11-16T07:26:17.953Z,96833.85
2022-11-16T07:28:50.248Z,96826.55
2022-11-16T07:31:21.166Z,96820.05
2022-11-16T07:34:06.536Z,96814.41
2022-11-16T07:37:04.595Z,96803.80
2022-11-16T07:39:32.929Z,96804.28
2022-11-16T07:42:01.820Z,96811.49
2022-11-16T07:44:46.184Z,96806.11
2022-11-16T07:47:16.411Z,96796.23
2022-11-16T07:49:48.775Z,96796.33
2022-11-16T07:52:20.964Z,96800.34
2022-11-16T07:55:07.713Z,96796.80
2022-11-16T07:57:36.500Z,96796.13
2022-11-16T08:00:08.616Z,96790.42
2022-11-16T08:02:45.759Z,96791.10
2022-11-16T08:05:19.218Z,96790.02
2022-11-16T08:07:47.629Z,96784.30
2022-11-16T08:10:16.378Z,96783.96
2022-11-16T08:12:44.820Z,96781.23
2022-11-16T08:15:15.408Z,96782.63
2022-11-16T08:17:44.539Z,96787.18
2022-11-16T08:20:14.647Z,96784.48
2022-11-16T08:22:43.639Z,96779.92
2022-11-16T08:25:14.061Z,96774.84
2022-11-16T08:27:44.500Z,96768.89
2022-11-16T08:30:13.565Z,96765.17
2022-11-16T08:32:42.940Z,96762.77
2022-11-16T08:35:12.734Z,96764.51
2022-11-16T08:37:41.615Z,96761.52
2022-11-16T08:40:11.661Z,96758.15
2022-11-16T08:42:43.609Z,96754.32
2022-11-16T08:45:13.006Z,96753.23
2022-11-16T08:47:42.196Z,96750.12
2022-11-16T08:50:10.548Z,96753.48
2022-11-16T08:52:39.054Z,96754.44
2022-11-16T08:55:07.724Z,96747.31
2022-11-16T08:57:36.861Z,96742.00
2022-11-16T09:00:09.307Z,96743.34
2022-11-16T09:02:38.079Z,96742.21
2022-11-16T09:05:08.308Z,96741.04
2022-11-16T09:07:36.740Z,96740.73
2022-11-16T09:10:05.766Z,96733.91
2022-11-16T09:12:35.330Z,96735.65
2022-11-16T09:15:05.056Z,96737.54
2022-11-16T09:17:33.832Z,96734.33
2022-11-16T09:20:02.255Z,96731.27
2022-11-16T09:22:30.901Z,96729.41
2022-11-16T09:24:59.637Z,96731.33
2022-11-16T09:27:27.941Z,96732.69
2022-11-16T09:29:56.289Z,96731.64
2022-11-16T09:32:24.926Z,96725.70
2022-11-16T09:34:54.127Z,96719.70
2022-11-16T09:37:22.794Z,96713.68
2022-11-16T09:39:51.552Z,96716.40
2022-11-16T09:42:33.531Z,96715.34
2022-11-16T09:45:15.157Z,96716.44
2022-11-16T09:47:56.710Z,96719.46
2022-11-16T09:50:33.933Z,96719.18
2022-11-16T09:53:28.835Z,96712.52
2022-11-16T09:56:22.639Z,96713.50
2022-11-16T09:59:00.912Z,96710.93
2022-11-16T10:02:02.369Z,96705.44
2022-11-16T10:04:59.768Z,96695.45
2022-11-16T10:07:33.259Z,96690.53
2022-11-16T10:10:01.788Z,96685.70
2022-11-16T10:13:18.307Z,96682.23
2022-11-16T10:16:09.473Z,96679.04
2022-11-16T10:18:57.598Z,96675.14
2022-11-16T10:21:35.402Z,96667.80
2022-11-16T10:24:28.562Z,96658.89
2022-11-16T10:26:59.903Z,96654.78
2022-11-16T10:29:34.537Z,96653.05
2022-11-16T10:32:02.697Z,96657.85
2022-11-16T10:35:13.882Z,96663.25
2022-11-16T10:37:52.324Z,96652.89
2022-11-16T10:40:51.909Z,96641.52
2022-11-16T10:43:30.382Z,96631.49
2022-11-16T10:46:19.917Z,96627.48
2022-11-16T10:49:27.390Z,96627.87
2022-11-16T10:51:55.728Z,96624.55
2022-11-16T10:54:23.868Z,96623.98
2022-11-16T10:57:04.052Z,96623.23
2022-11-16T10:59:40.347Z,96614.41
2022-11-16T11:02:35.068Z,96613.65
2022-11-16T11:05:20.439Z,96620.27
2022-11-16T11:08:08.049Z,96615.70
2022-11-16T11:10:42.342Z,96607.38
2022-11-16T11:13:10.416Z,96606.79
2022-11-16T11:15:40.859Z,96606.10
2022-11-16T11:18:24.353Z,96601.88
2022-11-16T11:21:00.691Z,96596.06
2022-11-16T11:23:28.935Z,96599.00
2022-11-16T11:26:00.224Z,96600.58
2022-11-16T11:28:45.669Z,96597.20
2022-11-16T11:31:26.181Z,96595.34
2022-11-16T11:34:02.846Z,96595.58
2022-11-16T11:36:40.677Z,96594.30
2022-11-16T11:39:11.999Z,96596.96
2022-11-16T11:41:46.102Z,96596.99
2022-11-16T11:44:14.331Z,96594.61
2022-11-16T11:49:42.066Z,96595.81
2022-11-16T11:52:21.184Z,96591.69
2022-11-16T11:54:54.532Z,96589.83
2022-11-16T11:57:24.051Z,96588.80
2022-11-16T11:59:55.629Z,96587.89
2022-11-16T12:02:27.089Z,96574.86
2022-11-16T12:05:35.137Z,96567.21
2022-11-16T12:08:22.358Z,96562.67
2022-11-16T12:10:56.799Z,96561.15
2022-11-16T12:13:58.190Z,96554.66
2022-11-16T12:16:39.583Z,96553.11
2022-11-16T12:19:23.553Z,96556.13
2022-11-16T12:22:07.397Z,96551.94
2022-11-16T12:24:57.388Z,96551.92
2022-11-16T12:27:31.748Z,96550.21
2022-11-16T12:30:19.082Z,96543.39
2022-11-16T12:33:27.426Z,96542.85
2022-11-16T12:36:16.586Z,96543.31
2022-11-16T12:39:13.197Z,96537.53
2022-11-16T12:41:41.317Z,96536.33
2022-11-16T12:44:13.557Z,96532.58
2022-11-16T12:47:00.994Z,96529.23
2022-11-16T12:50:14.512Z,96530.08
2022-11-16T12:53:28.171Z,96527.56
2022-11-16T12:56:29.779Z,96526.36
2022-11-16T12:59:27.655Z,96527.34
2022-11-16T13:02:14.865Z,96521.33
2022-11-16T13:04:53.138Z,96516.73
2022-11-16T13:07:28.215Z,96518.81
2022-11-16T13:10:04.128Z,96514.96
2022-11-16T13:12:40.483Z,96516.02
2022-11-16T13:15:19.470Z,96518.08
2022-11-16T13:17:57.260Z,96514.73
2022-11-16T13:20:46.390Z,96515.08
2022-11-16T13:23:39.856Z,96514.27
2022-11-16T13:26:24.405Z,96512.35
2022-11-16T13:29:02.233Z,96509.59
2022-11-16T13:31:56.433Z,96510.98
2022-11-16T13:34:29.426Z,96507.70
2022-11-16T13:36:57.999Z,96504.30
2022-11-16T13:40:05.356Z,96504.20
2022-11-16T13:42:39.041Z,96496.70
2022-11-16T13:45:16.789Z,96493.65
2022-11-16T13:47:54.315Z,96492.62
2022-11-16T13:50:38.185Z,96491.00
2022-11-16T13:56:18.304Z,96492.86
2022-11-16T13:58:50.301Z,96493.54
2022-11-16T14:01:19.452Z,96490.94
2022-11-16T14:04:12.669Z,96489.77
2022-11-16T14:06:44.017Z,96483.88
2022-11-16T14:09:44.990Z,96483.60
2022-11-16T14:12:39.132Z,96482.65
2022-11-16T14:15:18.737Z,96486.91
2022-11-16T14:17:57.016Z,96488.80
2022-11-16T14:20:35.091Z,96485.89
2022-11-16T14:23:22.737Z,96484.71
2022-11-16T14:25:57.311Z,96481.33
2022-11-16T14:28:53.446Z,96479.49
2022-11-16T14:31:28.276Z,96480.64
2022-11-16T14:34:00.385Z,96480.14
2022-11-16T14:36:41.944Z,96475.41
2022-11-16T14:39:28.379Z,96475.34
2022-11-16T14:42:00.947Z,96475.98
2022-11-16T14:44:34.246Z,96470.36
2022-11-16T14:47:04.118Z,96468.36
2022-11-16T14:49:36.491Z,96466.69
2022-11-16T14:52:08.483Z,96463.94
2022-11-16T14:54:42.692Z,96460.64
2022-11-16T14:57:22.722Z,96461.73
2022-11-16T15:00:10.790Z,96465.76
2022-11-16T15:02:40.504Z,96457.54
2022-11-16T15:05:19.246Z,96452.79
2022-11-16T15:07:52.654Z,96449.91
2022-11-16T15:10:25.689Z,96450.83
2022-11-16T15:12:56.621Z,96455.17
2022-11-16T15:15:33.518Z,96454.14
2022-11-16T15:18:07.820Z,96449.27
2022-11-16T15:20:46.993Z,96449.95
2022-11-16T15:23:16.796Z,96446.40
2022-11-16T15:25:58.017Z,96448.02
2022-11-16T15:28:30.062Z,96454.30
2022-11-16T15:31:02.689Z,96451.89
2022-11-16T15:33:36.730Z,96448.27
2022-11-16T15:36:25.685Z,96444.41
2022-11-16T15:38:56.880Z,96444.05
2022-11-16T15:41:29.558Z,96445.95
2022-11-16T15:44:13.932Z,96448.23
2022-11-16T15:46:56.770Z,96441.80
2022-11-16T15:49:41.449Z,96433.98
2022-11-16T15:52:12.548Z,96430.36
2022-11-16T15:54:59.937Z,96432.50
2022-11-16T15:57:28.714Z,96431.63
2022-11-16T15:59:58.300Z,96430.62
2022-11-16T16:02:30.604Z,96433.88
2022-11-16T16:05:01.288Z,96432.30
2022-11-16T16:07:45.776Z,96419.61
2022-11-16T16:10:20.893Z,96412.60
2022-11-16T16:12:58.447Z,96412.92
2022-11-16T16:15:34.520Z,96410.07
2022-11-16T16:18:41.592Z,96408.40
2022-11-16T16:21:13.538Z,96398.66
2022-11-16T16:23:56.495Z,96389.54
2022-11-16T16:26:38.852Z,96390.66
2022-11-16T16:29:08.360Z,96391.06
2022-11-16T16:31:37.374Z,96392.13
2022-11-16T16:34:12.557Z,96391.30
2022-11-16T16:36:44.486Z,96387.83
2022-11-16T16:39:13.236Z,96387.98
2022-11-16T16:41:42.014Z,96385.02
2022-11-16T16:44:16.021Z,96379.29
2022-11-16T16:46:45.653Z,96376.88
2022-11-16T16:49:14.699Z,96375.65
2022-11-16T16:51:43.652Z,96375.58
2022-11-16T16:54:15.252Z,96373.54
2022-11-16T16:56:44.469Z,96371.50
2022-11-16T16:59:14.487Z,96368.73
2022-11-16T17:01:43.367Z,96369.04
2022-11-16T17:04:11.863Z,96368.08
2022-11-16T17:06:46.230Z,96368.70
2022-11-16T17:09:15.163Z,96367.02
2022-11-16T17:11:43.465Z,96369.14
2022-11-16T17:14:12.894Z,96371.63
2022-11-16T17:16:41.540Z,96369.91
2022-11-16T17:19:09.977Z,96368.20
2022-11-16T17:21:38.367Z,96371.84
2022-11-16T17:24:06.932Z,96368.58
2022-11-16T17:26:35.755Z,96366.87
2022-11-16T17:29:04.168Z,96369.08
2022-11-16T17:31:32.346Z,96367.84
2022-11-16T17:34:01.003Z,96369.94
2022-11-16T17:36:29.807Z,96369.10
2022-11-16T17:38:59.000Z,96368.53
2022-11-16T17:41:28.549Z,96361.58
2022-11-16T17:43:57.311Z,96358.42
2022-11-16T17:46:26.373Z,96362.09
2022-11-16T17:48:55.145Z,96362.98
2022-11-16T17:51:25.439Z,96365.06
2022-11-16T17:53:53.881Z,96357.05
2022-11-16T17:56:26.152Z,96352.16
2022-11-16T17:58:58.567Z,96351.84
2022-11-16T18:01:28.766Z,96349.64
2022-11-16T18:03:58.013Z,96347.37
2022-11-16T18:06:27.538Z,96343.20
2022-11-16T18:08:57.285Z,96343.37
2022-11-16T18:11:27.266Z,96340.61
2022-11-16T18:13:58.440Z,96341.15
2022-11-16T18:16:30.574Z,96337.23
2022-11-16T18:19:01.528Z,96331.16
2022-11-16T18:21:30.363Z,96329.56
2022-11-16T18:24:00.626Z,96330.46
2022-11-16T18:26:29.836Z,96328.73
2022-11-16T18:28:57.873Z,96328.72
2022-11-16T18:31:26.834Z,96327.81
2022-11-16T18:33:55.594Z,96323.79
2022-11-16T18:36:23.749Z,96316.85
2022-11-16T18:38:52.459Z,96316.33
2022-11-16T18:41:24.346Z,96318.58
2022-11-16T18:44:01.448Z,96321.54
2022-11-16T18:46:32.193Z,96314.79
2022-11-16T18:49:00.561Z,96309.66
2022-11-16T18:51:29.558Z,96309.10
2022-11-16T18:53:57.843Z,96308.73
2022-11-16T18:56:27.199Z,96305.71
2022-11-16T18:58:55.749Z,96302.02
2022-11-16T19:01:26.291Z,96305.74
2022-11-16T19:03:56.697Z,96306.90
2022-11-16T19:06:25.052Z,96304.98
2022-11-16T19:08:56.537Z,96310.44
2022-11-16T19:11:27.130Z,96311.64
2022-11-16T19:14:07.903Z,96309.61
2022-11-16T19:16:36.597Z,96310.03
2022-11-16T19:19:05.640Z,96308.30
2022-11-16T19:21:33.954Z,96298.91
2022-11-16T19:24:02.073Z,96297.71
2022-11-16T19:26:30.421Z,96299.67
2022-11-16T19:28:58.772Z,96308.89
2022-11-16T19:31:29.003Z,96307.36
2022-11-16T19:34:05.799Z,96305.09
2022-11-16T19:36:36.320Z,96296.12
2022-11-16T19:39:05.468Z,96292.82
2022-11-16T19:41:33.668Z,96293.44
2022-11-16T19:44:03.018Z,96295.80
2022-11-16T19:46:33.938Z,96296.58
2022-11-16T19:49:02.924Z,96295.77
2022-11-16T19:51:34.015Z,96290.17
2022-11-16T19:54:03.142Z,96290.55
2022-11-16T19:56:31.797Z,96289.89
2022-11-16T19:59:00.891Z,96285.41
2022-11-16T20:01:29.933Z,96279.25
2022-11-16T20:04:00.571Z,96278.26
2022-11-16T20:06:31.988Z,96272.54
2022-11-16T20:09:04.301Z,96266.68
2022-11-16T20:11:36.520Z,96265.67
2022-11-16T20:14:07.056Z,96262.05
2022-11-16T20:16:39.240Z,96256.47
2022-11-16T20:19:09.480Z,96257.16
2022-11-16T20:21:41.348Z,96254.35
2022-11-16T20:24:14.938Z,96254.30
2022-11-16T20:26:48.712Z,96256.55
2022-11-16T20:29:18.672Z,96252.85
2022-11-16T20:31:47.033Z,96250.01
2022-11-16T20:34:17.862Z,96248.92
2022-11-16T20:36:47.357Z,96247.33
2022-11-16T20:39:17.458Z,96242.23
2022-11-16T20:41:46.411Z,96241.61
2022-11-16T20:44:26.737Z,96237.11
2022-11-16T20:46:55.137Z,96233.66
2022-11-16T20:49:23.521Z,96231.39
2022-11-16T20:51:51.998Z,96228.63
2022-11-16T20:54:20.116Z,96229.52
2022-11-16T20:56:51.119Z,96226.36
2022-11-16T20:59:19.632Z,96222.73
2022-11-16T21:01:49.003Z,96215.76
2022-11-16T21:04:17.291Z,96206.05
2022-11-16T21:06:45.518Z,96206.05
2022-11-16T21:09:15.722Z,96203.59
2022-11-16T21:12:02.169Z,96197.45
2022-11-16T21:14:30.183Z,96199.88
2022-11-16T21:16:58.113Z,96198.48
2022-11-16T21:19:26.226Z,96196.08
2022-11-16T21:21:54.491Z,96195.38
2022-11-16T21:24:24.974Z,96191.86
2022-11-16T21:26:53.430Z,96193.38
2022-11-16T21:29:25.940Z,96193.90
2022-11-16T21:31:54.258Z,96190.67
2022-11-16T21:34:24.503Z,96188.36
2022-11-16T21:36:52.510Z,96185.56
2022-11-16T21:39:20.599Z,96181.40
2022-11-16T21:41:48.422Z,96181.80
2022-11-16T21:44:16.448Z,96181.19
2022-11-16T21:46:44.420Z,96178.45
2022-11-16T21:49:12.275Z,96173.60
2022-11-16T21:51:40.239Z,96171.13
2022-11-16T21:54:08.274Z,96167.81
2022-11-16T21:56:36.303Z,96165.73
2022-11-16T21:59:04.443Z,96162.66
2022-11-16T22:01:52.714Z,96164.05
2022-11-16T22:04:39.839Z,96160.52
2022-11-16T22:07:33.884Z,96158.87
2022-11-16T22:10:07.432Z,96153.71
2022-11-16T22:12:36.020Z,96146.58
2022-11-16T22:15:06.887Z,96145.85
2022-11-16T22:17:34.857Z,96143.97
2022-11-16T22:20:03.562Z,96142.34
2022-11-16T22:22:31.855Z,96141.62
2022-11-16T22:24:59.966Z,96140.84
2022-11-16T22:27:27.995Z,96137.60
2022-11-16T22:29:56.021Z,96136.55
2022-11-16T22:32:23.936Z,96133.76
2022-11-16T22:34:52.229Z,96129.80
2022-11-16T22:37:20.175Z,96128.40
2022-11-16T22:39:48.447Z,96124.86
2022-11-16T22:42:16.421Z,96119.01
2022-11-16T22:44:44.335Z,96113.55
2022-11-16T22:47:12.385Z,96111.77
2022-11-16T22:49:40.397Z,96106.55
2022-11-16T22:52:08.372Z,96106.91
2022-11-16T22:54:38.914Z,96108.69
2022-11-16T22:57:07.039Z,96110.15
2022-11-16T22:59:35.042Z,96110.70
2022-11-16T23:02:05.966Z,96109.64
2022-11-16T23:04:34.380Z,96105.52
2022-11-16T23:07:02.855Z,96099.56
2022-11-16T23:09:32.164Z,96092.65
2022-11-16T23:12:18.909Z,96089.66
2022-11-16T23:15:05.501Z,96091.35
2022-11-16T23:17:33.369Z,96091.38
2022-11-16T23:20:19.864Z,96092.66
2022-11-16T23:23:06.327Z,96089.73
2022-11-16T23:25:52.954Z,96091.84
2022-11-16T23:28:21.016Z,96089.98
2022-11-16T23:30:49.207Z,96087.63
2022-11-16T23:33:17.139Z,96081.44
2022-11-16T23:35:45.135Z,96075.23
2022-11-16T23:38:13.168Z,96069.70
2022-11-16T23:40:41.380Z,96066.25
2022-11-16T23:43:29.432Z,96060.04
2022-11-16T23:45:57.348Z,96059.58
2022-11-16T23:48:25.347Z,96060.34
2022-11-16T23:50:53.248Z,96064.23
2022-11-16T23:53:21.367Z,96064.52
2022-11-16T23:55:49.295Z,96065.21
2022-11-16T23:58:17.239Z,96063.77
